createdAt,value
2024-01-03T00:00:07.114Z,99.33
2024-01-03T00:01:07.828Z,99.24
2024-01-03T00:02:07.840Z,99.31
2024-01-03T00:03:06.334Z,99.45
2024-01-03T00:04:06.427Z,99.59
2024-01-03T00:05:06.290Z,99.83
2024-01-03T00:06:07.898Z,100.00
2024-01-03T00:07:06.360Z,99.92
2024-01-03T00:08:07.775Z,99.81
2024-01-03T00:09:06.988Z,99.82
2024-01-03T00:10:06.231Z,99.89
2024-01-03T00:11:07.674Z,99.94
2024-01-03T00:12:06.228Z,99.94
2024-01-03T00:13:06.196Z,100.00
2024-01-03T00:14:07.611Z,99.95
2024-01-03T00:15:06.174Z,99.88
2024-01-03T00:16:07.570Z,99.85
2024-01-03T00:17:07.560Z,99.72
2024-01-03T00:18:06.857Z,99.83
2024-01-03T00:19:06.685Z,99.70
2024-01-03T00:20:06.138Z,99.84
2024-01-03T00:21:06.105Z,99.90
2024-01-03T00:22:07.490Z,99.73
2024-01-03T00:23:06.085Z,99.35
2024-01-03T00:24:06.776Z,99.50
2024-01-03T00:25:07.459Z,99.57
2024-01-03T00:26:06.007Z,99.53
2024-01-03T00:27:06.071Z,99.70
2024-01-03T00:28:06.189Z,99.66
2024-01-03T00:29:06.173Z,99.41
2024-01-03T00:30:07.406Z,99.66
2024-01-03T00:31:06.003Z,99.94
2024-01-03T00:32:06.742Z,100.00
2024-01-03T00:33:06.795Z,100.00
2024-01-03T00:34:07.480Z,99.79
2024-01-03T00:35:05.942Z,99.91
2024-01-03T00:36:05.940Z,99.58
2024-01-03T00:37:05.867Z,99.50
2024-01-03T00:38:06.851Z,99.47
2024-01-03T00:39:05.859Z,99.63
2024-01-03T00:40:07.784Z,99.38
2024-01-03T00:41:07.764Z,99.56
2024-01-03T00:42:05.831Z,100.00
2024-01-03T00:43:07.735Z,99.99
2024-01-03T00:44:07.789Z,99.93
2024-01-03T00:45:06.519Z,99.89
2024-01-03T00:46:07.672Z,99.84
2024-01-03T00:47:05.751Z,99.89
2024-01-03T00:48:05.970Z,99.92
2024-01-03T00:49:07.733Z,100.00
2024-01-03T00:50:06.544Z,100.00
2024-01-03T00:51:05.661Z,99.73
2024-01-03T00:52:05.640Z,99.25
2024-01-03T00:53:05.642Z,98.81
2024-01-03T00:54:07.599Z,98.94
2024-01-03T00:55:05.611Z,99.30
2024-01-03T00:56:07.544Z,99.30
2024-01-03T00:57:07.208Z,99.23
2024-01-03T00:58:06.671Z,99.45
2024-01-03T00:59:05.572Z,99.34
2024-01-03T01:00:05.559Z,99.04
2024-01-03T01:01:05.553Z,98.99
2024-01-03T01:02:06.304Z,98.68
2024-01-03T01:03:05.503Z,98.84
2024-01-03T01:04:06.285Z,99.24
2024-01-03T01:05:06.259Z,99.22
2024-01-03T01:06:07.442Z,99.02
2024-01-03T01:07:06.270Z,99.19
2024-01-03T01:08:07.053Z,99.40
2024-01-03T01:09:05.774Z,99.38
2024-01-03T01:10:06.140Z,99.11
2024-01-03T01:11:05.379Z,98.94
2024-01-03T01:12:06.802Z,99.07
2024-01-03T01:13:06.767Z,98.85
2024-01-03T01:14:06.748Z,99.08
2024-01-03T01:15:05.328Z,99.41
2024-01-03T01:16:05.585Z,99.49
2024-01-03T01:17:05.332Z,99.37
2024-01-03T01:18:07.019Z,99.55
2024-01-03T01:19:05.359Z,99.49
2024-01-03T01:20:06.293Z,99.26
2024-01-03T01:21:06.647Z,98.99
2024-01-03T01:22:05.268Z,98.83
2024-01-03T01:23:05.616Z,98.62
2024-01-03T01:24:05.284Z,98.70
2024-01-03T01:25:05.309Z,98.92
2024-01-03T01:26:06.636Z,99.02
2024-01-03T01:27:05.387Z,99.21
2024-01-03T01:28:06.121Z,99.02
2024-01-03T01:29:06.547Z,98.78
2024-01-03T01:30:05.897Z,98.97
2024-01-03T01:31:05.129Z,99.05
2024-01-03T01:32:05.159Z,98.36
2024-01-03T01:33:05.174Z,98.39
2024-01-03T01:34:05.685Z,98.42
2024-01-03T01:35:05.056Z,98.33
2024-01-03T01:36:06.512Z,98.82
2024-01-03T01:37:05.625Z,98.98
2024-01-03T01:38:05.115Z,98.43
2024-01-03T01:39:05.648Z,98.05
2024-01-03T01:40:06.433Z,98.11
2024-01-03T01:41:05.641Z,98.25
2024-01-03T01:42:05.047Z,98.67
2024-01-03T01:43:05.002Z,98.76
2024-01-03T01:44:04.954Z,98.92
2024-01-03T01:45:04.988Z,99.11
2024-01-03T01:46:04.950Z,98.88
2024-01-03T01:47:04.894Z,99.24
2024-01-03T01:48:05.028Z,99.28
2024-01-03T01:49:04.979Z,99.09
2024-01-03T01:50:04.910Z,99.29
2024-01-03T01:51:04.886Z,98.97
2024-01-03T01:52:04.992Z,99.01
2024-01-03T01:53:05.034Z,98.99
2024-01-03T01:54:05.667Z,99.03
2024-01-03T01:55:05.489Z,98.95
2024-01-03T01:56:06.244Z,99.09
2024-01-03T01:57:06.389Z,98.81
2024-01-03T01:58:04.942Z,98.88
2024-01-03T01:59:04.870Z,99.09
2024-01-03T02:00:05.089Z,99.07
2024-01-03T02:01:06.228Z,98.76
2024-01-03T02:02:05.433Z,98.88
2024-01-03T02:03:06.165Z,99.01
2024-01-03T02:04:06.241Z,98.86
2024-01-03T02:05:05.002Z,98.90
2024-01-03T02:06:04.962Z,98.71
2024-01-03T02:07:05.341Z,98.55
2024-01-03T02:08:05.359Z,98.01
2024-01-03T02:09:04.990Z,97.77
2024-01-03T02:10:04.599Z,97.65
2024-01-03T02:11:04.561Z,97.30
2024-01-03T02:12:04.557Z,97.65
2024-01-03T02:13:04.563Z,97.13
2024-01-03T02:14:05.911Z,97.14
2024-01-03T02:15:04.531Z,96.91
2024-01-03T02:16:05.897Z,96.61
2024-01-03T02:17:05.876Z,96.67
2024-01-03T02:18:04.882Z,96.89
2024-01-03T02:19:04.604Z,96.34
2024-01-03T02:20:05.837Z,95.99
2024-01-03T02:21:05.187Z,96.48
2024-01-03T02:22:04.453Z,96.14
2024-01-03T02:23:04.421Z,96.14
2024-01-03T02:24:05.783Z,95.35
2024-01-03T02:25:04.375Z,95.12
2024-01-03T02:26:10.431Z,95.49
2024-01-03T02:27:05.706Z,95.71
2024-01-03T02:28:05.142Z,95.86
2024-01-03T02:29:05.097Z,96.33
2024-01-03T02:30:04.339Z,95.86
2024-01-03T02:31:05.049Z,96.38
2024-01-03T02:32:05.018Z,96.28
2024-01-03T02:33:05.027Z,96.44
2024-01-03T02:34:05.786Z,97.02
2024-01-03T02:35:05.656Z,97.24
2024-01-03T02:36:04.325Z,97.41
2024-01-03T02:37:04.240Z,97.43
2024-01-03T02:38:04.619Z,97.55
2024-01-03T02:39:04.917Z,97.44
2024-01-03T02:40:04.929Z,96.94
2024-01-03T02:41:04.659Z,97.10
2024-01-03T02:42:04.864Z,96.20
2024-01-03T02:43:04.704Z,96.73
2024-01-03T02:44:04.746Z,97.25
2024-01-03T02:45:06.016Z,97.59
2024-01-03T02:46:04.102Z,96.75
2024-01-03T02:47:04.792Z,96.76
2024-01-03T02:48:06.142Z,96.98
2024-01-03T02:49:04.875Z,97.00
2024-01-03T02:50:05.975Z,97.58
2024-01-03T02:51:04.766Z,98.05
2024-01-03T02:52:04.610Z,98.49
2024-01-03T02:53:05.921Z,99.04
2024-01-03T02:54:04.074Z,98.31
2024-01-03T02:55:05.909Z,98.55
2024-01-03T02:56:05.898Z,98.99
2024-01-03T02:57:04.445Z,99.27
2024-01-03T02:58:04.662Z,99.20
2024-01-03T02:59:05.827Z,99.21
2024-01-03T03:00:05.888Z,99.41
2024-01-03T03:01:05.853Z,99.90
2024-01-03T03:02:03.828Z,100.00
2024-01-03T03:03:05.834Z,99.77
2024-01-03T03:04:05.828Z,99.54
2024-01-03T03:05:04.531Z,99.65
2024-01-03T03:06:05.303Z,99.48
2024-01-03T03:07:05.227Z,99.14
2024-01-03T03:08:03.829Z,98.99
2024-01-03T03:09:13.417Z,99.24
2024-01-03T03:10:06.748Z,98.69
2024-01-03T03:11:04.500Z,98.89
2024-01-03T03:12:04.497Z,98.72
2024-01-03T03:13:04.427Z,98.18
2024-01-03T03:14:05.083Z,98.10
2024-01-03T03:15:04.472Z,98.54
2024-01-03T03:16:04.374Z,98.65
2024-01-03T03:17:04.371Z,98.83
2024-01-03T03:18:03.811Z,99.06
2024-01-03T03:19:05.215Z,99.22
2024-01-03T03:20:04.330Z,98.50
2024-01-03T03:21:03.655Z,98.05
2024-01-03T03:22:04.301Z,98.53
2024-01-03T03:23:04.952Z,98.63
2024-01-03T03:24:03.569Z,98.77
2024-01-03T03:25:05.125Z,98.59
2024-01-03T03:26:03.509Z,98.35
2024-01-03T03:27:04.364Z,98.32
2024-01-03T03:28:04.189Z,98.64
2024-01-03T03:29:03.483Z,98.59
2024-01-03T03:30:03.928Z,98.16
2024-01-03T03:31:04.980Z,97.93
2024-01-03T03:32:03.419Z,97.75
2024-01-03T03:33:05.025Z,97.47
2024-01-03T03:34:03.489Z,97.41
2024-01-03T03:35:05.339Z,97.55
2024-01-03T03:36:04.831Z,97.22
2024-01-03T03:37:03.363Z,97.31
2024-01-03T03:38:03.765Z,97.17
2024-01-03T03:39:03.489Z,97.40
2024-01-03T03:40:03.766Z,97.93
2024-01-03T03:41:03.354Z,97.97
2024-01-03T03:42:03.345Z,98.16
2024-01-03T03:43:03.991Z,98.01
2024-01-03T03:44:04.018Z,97.86
2024-01-03T03:45:03.846Z,96.78
2024-01-03T03:46:03.971Z,95.75
2024-01-03T03:47:03.240Z,95.54
2024-01-03T03:48:03.397Z,95.83
2024-01-03T03:49:04.111Z,95.03
2024-01-03T03:50:03.173Z,95.66
2024-01-03T03:51:03.959Z,95.66
2024-01-03T03:52:03.876Z,95.06
2024-01-03T03:53:03.884Z,95.35
2024-01-03T03:54:03.897Z,95.91
2024-01-03T03:55:03.562Z,96.51
2024-01-03T03:56:03.571Z,96.03
2024-01-03T03:57:04.504Z,96.30
2024-01-03T03:58:03.064Z,96.28
2024-01-03T03:59:04.467Z,96.44
2024-01-03T04:00:03.838Z,96.22
2024-01-03T04:01:03.369Z,95.95
2024-01-03T04:02:03.103Z,96.08
2024-01-03T04:03:03.099Z,95.56
2024-01-03T04:04:03.158Z,95.69
2024-01-03T04:05:04.492Z,95.86
2024-01-03T04:06:03.198Z,95.43
2024-01-03T04:07:04.414Z,95.50
2024-01-03T04:08:04.343Z,95.23
2024-01-03T04:09:03.069Z,95.59
2024-01-03T04:10:04.398Z,95.26
2024-01-03T04:11:03.626Z,95.97
2024-01-03T04:12:03.117Z,96.14
2024-01-03T04:13:04.333Z,95.71
2024-01-03T04:14:02.861Z,95.74
2024-01-03T04:15:03.595Z,95.67
2024-01-03T04:16:03.610Z,95.66
2024-01-03T04:17:04.251Z,95.98
2024-01-03T04:18:04.428Z,96.25
2024-01-03T04:19:03.689Z,96.45
2024-01-03T04:20:02.800Z,96.30
2024-01-03T04:21:04.220Z,96.71
2024-01-03T04:22:02.777Z,96.60
2024-01-03T04:23:03.505Z,96.50
2024-01-03T04:24:04.206Z,96.57
2024-01-03T04:25:04.166Z,96.47
2024-01-03T04:26:03.430Z,96.34
2024-01-03T04:27:03.501Z,96.36
2024-01-03T04:28:02.760Z,96.35
2024-01-03T04:29:04.089Z,96.10
2024-01-03T04:30:02.826Z,95.83
2024-01-03T04:31:03.460Z,96.50
2024-01-03T04:32:03.338Z,96.07
2024-01-03T04:33:04.121Z,95.55
2024-01-03T04:34:03.403Z,95.66
2024-01-03T04:35:03.957Z,96.23
2024-01-03T04:36:02.639Z,96.06
2024-01-03T04:37:03.307Z,95.64
2024-01-03T04:38:02.524Z,95.89
2024-01-03T04:39:03.922Z,95.95
2024-01-03T04:40:03.229Z,95.29
2024-01-03T04:41:03.259Z,95.57
2024-01-03T04:42:03.936Z,95.65
2024-01-03T04:43:02.463Z,95.62
2024-01-03T04:44:02.445Z,95.80
2024-01-03T04:45:03.224Z,95.38
2024-01-03T04:46:02.419Z,95.60
2024-01-03T04:47:03.814Z,95.26
2024-01-03T04:48:03.946Z,95.62
2024-01-03T04:49:02.485Z,95.54
2024-01-03T04:50:03.186Z,95.27
2024-01-03T04:51:03.825Z,95.48
2024-01-03T04:52:02.408Z,95.03
2024-01-03T04:53:03.757Z,95.17
2024-01-03T04:54:02.329Z,95.34
2024-01-03T04:55:03.071Z,95.37
2024-01-03T04:56:03.022Z,95.20
2024-01-03T04:57:02.352Z,95.33
2024-01-03T04:58:02.956Z,95.65
2024-01-03T04:59:04.202Z,95.83
2024-01-03T05:00:02.373Z,95.88
2024-01-03T05:01:04.218Z,95.90
2024-01-03T05:02:02.210Z,95.63
2024-01-03T05:03:02.932Z,95.62
2024-01-03T05:04:04.174Z,95.83
2024-01-03T05:05:03.574Z,95.86
2024-01-03T05:06:04.181Z,95.65
2024-01-03T05:07:03.504Z,95.29
2024-01-03T05:08:02.209Z,95.31
2024-01-03T05:09:03.520Z,95.46
2024-01-03T05:10:02.109Z,95.43
2024-01-03T05:11:02.769Z,95.34
2024-01-03T05:12:03.481Z,95.71
2024-01-03T05:13:02.788Z,95.57
2024-01-03T05:14:03.456Z,95.63
2024-01-03T05:15:02.242Z,95.57
2024-01-03T05:16:02.464Z,95.64
2024-01-03T05:17:02.717Z,95.70
2024-01-03T05:18:02.084Z,95.84
2024-01-03T05:19:02.788Z,95.69
2024-01-03T05:20:03.366Z,95.60
2024-01-03T05:21:01.992Z,95.64
2024-01-03T05:22:02.690Z,94.95
2024-01-03T05:23:01.939Z,94.89
2024-01-03T05:24:01.975Z,94.36
2024-01-03T05:25:03.288Z,94.46
2024-01-03T05:26:03.817Z,94.62
2024-01-03T05:27:02.610Z,94.69
2024-01-03T05:28:02.559Z,94.72
2024-01-03T05:29:03.209Z,94.93
2024-01-03T05:30:03.391Z,95.30
2024-01-03T05:31:02.053Z,94.99
2024-01-03T05:32:02.509Z,95.19
2024-01-03T05:33:02.582Z,94.28
2024-01-03T05:34:02.002Z,93.57
2024-01-03T05:35:03.178Z,93.43
2024-01-03T05:36:03.196Z,93.69
2024-01-03T05:37:02.448Z,92.83
2024-01-03T05:38:02.437Z,92.90
2024-01-03T05:39:03.166Z,92.92
2024-01-03T05:40:03.081Z,92.87
2024-01-03T05:41:04.501Z,92.42
2024-01-03T05:42:01.735Z,92.72
2024-01-03T05:43:03.040Z,93.11
2024-01-03T05:44:02.460Z,92.81
2024-01-03T05:45:03.276Z,93.02
2024-01-03T05:46:02.327Z,92.93
2024-01-03T05:47:01.866Z,92.37
2024-01-03T05:48:02.117Z,92.61
2024-01-03T05:49:02.393Z,92.54
2024-01-03T05:50:03.087Z,92.35
2024-01-03T05:51:02.308Z,92.65
2024-01-03T05:52:02.915Z,92.45
2024-01-03T05:53:02.903Z,92.60
2024-01-03T05:54:01.597Z,92.79
2024-01-03T05:55:02.877Z,93.00
2024-01-03T05:56:02.194Z,93.24
2024-01-03T05:57:02.939Z,93.60
2024-01-03T05:58:01.437Z,93.31
2024-01-03T05:59:02.190Z,93.33
2024-01-03T06:00:01.742Z,93.31
2024-01-03T06:01:01.459Z,93.51
2024-01-03T06:02:02.089Z,93.52
2024-01-03T06:03:02.186Z,93.63
2024-01-03T06:04:01.377Z,93.63
2024-01-03T06:05:01.850Z,93.90
2024-01-03T06:06:02.809Z,94.28
2024-01-03T06:07:02.768Z,94.95
2024-01-03T06:08:03.243Z,95.45
2024-01-03T06:09:02.036Z,95.54
2024-01-03T06:10:01.574Z,96.22
2024-01-03T06:11:01.301Z,96.74
2024-01-03T06:12:03.223Z,97.01
2024-01-03T06:13:01.225Z,97.07
2024-01-03T06:14:01.219Z,97.25
2024-01-03T06:15:02.037Z,97.79
2024-01-03T06:16:01.886Z,98.32
2024-01-03T06:17:01.202Z,98.33
2024-01-03T06:18:02.725Z,98.43
2024-01-03T06:19:02.068Z,98.64
2024-01-03T06:20:01.226Z,99.06
2024-01-03T06:21:01.204Z,99.17
2024-01-03T06:22:01.131Z,99.40
2024-01-03T06:23:01.873Z,99.78
2024-01-03T06:24:02.552Z,100.00
2024-01-03T06:25:01.100Z,100.00
2024-01-03T06:26:03.012Z,100.00
2024-01-03T06:27:01.906Z,100.00
2024-01-03T06:28:01.780Z,100.00
2024-01-03T06:29:01.133Z,100.00
2024-01-03T06:30:01.206Z,100.00
2024-01-03T06:31:02.514Z,100.00
2024-01-03T06:32:02.914Z,100.00
2024-01-03T06:33:00.997Z,100.00
2024-01-03T06:34:01.083Z,100.00
2024-01-03T06:35:02.359Z,100.00
2024-01-03T06:36:01.033Z,100.00
2024-01-03T06:37:00.903Z,100.00
2024-01-03T06:38:02.294Z,100.00
2024-01-03T06:39:01.631Z,100.00
2024-01-03T06:40:02.280Z,100.00
2024-01-03T06:41:02.294Z,100.00
2024-01-03T06:42:01.641Z,100.00
2024-01-03T06:43:02.245Z,100.00
2024-01-03T06:44:02.230Z,100.00
2024-01-03T06:45:01.607Z,100.00
2024-01-03T06:46:01.515Z,100.00
2024-01-03T06:47:02.169Z,100.00
2024-01-03T06:48:01.644Z,100.00
2024-01-03T06:49:02.452Z,100.00
2024-01-03T06:50:01.487Z,100.00
2024-01-03T06:51:02.197Z,100.00
2024-01-03T06:52:01.433Z,100.00
2024-01-03T06:53:00.690Z,100.00
2024-01-03T06:54:01.401Z,100.00
2024-01-03T06:55:02.261Z,100.00
2024-01-03T06:56:01.882Z,100.00
2024-01-03T06:57:01.439Z,100.00
2024-01-03T06:58:00.633Z,100.00
2024-01-03T06:59:02.023Z,100.00
2024-01-03T07:00:00.809Z,100.00
2024-01-03T07:01:02.546Z,100.00
2024-01-03T07:02:01.345Z,100.00
2024-01-03T07:03:02.110Z,100.00
2024-01-03T07:04:00.588Z,100.00
2024-01-03T07:05:00.565Z,100.00
2024-01-03T07:06:00.611Z,100.00
2024-01-03T07:07:01.909Z,100.00
2024-01-03T07:08:01.878Z,100.00
2024-01-03T07:09:00.665Z,100.00
2024-01-03T07:10:01.864Z,100.00
2024-01-03T07:11:01.862Z,100.00
2024-01-03T07:12:00.616Z,100.00
2024-01-03T07:13:00.576Z,100.00
2024-01-03T07:14:00.577Z,100.00
2024-01-03T07:15:01.379Z,100.00
2024-01-03T07:16:00.602Z,100.00
2024-01-03T07:17:00.331Z,100.00
2024-01-03T07:18:00.909Z,100.00
2024-01-03T07:19:01.289Z,100.00
2024-01-03T07:20:00.422Z,100.00
2024-01-03T07:21:00.557Z,100.00
2024-01-03T07:22:00.274Z,100.00
2024-01-03T07:23:00.531Z,100.00
2024-01-03T07:24:01.006Z,100.00
2024-01-03T07:25:00.669Z,100.00
2024-01-03T07:26:01.615Z,100.00
2024-01-03T07:27:01.050Z,100.00
2024-01-03T07:28:00.209Z,100.00
2024-01-03T07:29:00.210Z,100.00
2024-01-03T07:30:00.466Z,100.00
2024-01-03T07:31:01.660Z,100.00
2024-01-03T07:32:00.336Z,100.00
2024-01-03T07:33:00.266Z,100.00
2024-01-03T07:34:01.747Z,99.95
2024-01-03T07:35:01.511Z,100.00
2024-01-03T07:36:00.668Z,99.89
2024-01-03T07:37:00.778Z,99.28
2024-01-03T07:38:00.561Z,99.54
2024-01-03T07:39:01.484Z,99.31
2024-01-03T07:40:01.451Z,99.27
2024-01-03T07:41:00.045Z,99.59
2024-01-03T07:42:00.811Z,99.88
2024-01-03T07:43:00.716Z,99.81
2024-01-03T07:43:59.979Z,99.91
2024-01-03T07:45:01.511Z,100.00
2024-01-03T07:46:01.354Z,100.00
2024-01-03T07:47:00.671Z,100.00
2024-01-03T07:48:01.390Z,100.00
2024-01-03T07:48:59.973Z,100.00
2024-01-03T07:50:00.726Z,100.00
2024-01-03T07:51:00.660Z,100.00
2024-01-03T07:51:59.859Z,100.00
2024-01-03T07:52:59.976Z,100.00
2024-01-03T07:53:59.861Z,100.00
2024-01-03T07:55:01.238Z,100.00
2024-01-03T07:56:00.572Z,100.00
2024-01-03T07:56:59.846Z,100.00
2024-01-03T07:58:00.583Z,100.00
2024-01-03T07:59:01.192Z,100.00
2024-01-03T07:59:59.857Z,100.00
2024-01-03T08:01:01.194Z,100.00
2024-01-03T08:01:59.731Z,100.00
2024-01-03T08:03:01.150Z,100.00
2024-01-03T08:04:00.496Z,100.00
2024-01-03T08:04:59.694Z,100.00
2024-01-03T08:06:04.140Z,100.00
2024-01-03T08:07:01.152Z,100.00
2024-01-03T08:07:59.643Z,100.00
2024-01-03T08:09:01.091Z,100.00
2024-01-03T08:10:00.025Z,100.00
2024-01-03T08:11:00.353Z,100.00
2024-01-03T08:12:00.504Z,100.00
2024-01-03T08:13:00.021Z,100.00
2024-01-03T08:14:00.305Z,100.00
2024-01-03T08:15:01.120Z,100.00
2024-01-03T08:16:00.280Z,100.00
2024-01-03T08:16:59.629Z,100.00
2024-01-03T08:18:02.643Z,100.00
2024-01-03T08:19:00.329Z,100.00
2024-01-03T08:20:00.542Z,100.00
2024-01-03T08:20:59.590Z,100.00
2024-01-03T08:22:01.439Z,100.00
2024-01-03T08:23:00.870Z,100.00
2024-01-03T08:23:59.953Z,100.00
2024-01-03T08:25:00.813Z,100.00
2024-01-03T08:25:59.697Z,100.00
2024-01-03T08:27:00.003Z,100.00
2024-01-03T08:28:00.802Z,100.00
2024-01-03T08:28:59.391Z,100.00
2024-01-03T08:30:00.134Z,100.00
2024-01-03T08:31:01.357Z,100.00
2024-01-03T08:32:00.058Z,100.00
2024-01-03T08:33:01.068Z,99.97
2024-01-03T08:34:01.355Z,99.63
2024-01-03T08:35:00.682Z,99.62
2024-01-03T08:36:00.773Z,99.62
2024-01-03T08:36:59.262Z,100.00
2024-01-03T08:37:59.987Z,99.56
2024-01-03T08:38:59.304Z,100.00
2024-01-03T08:40:00.613Z,99.60
2024-01-03T08:40:59.932Z,100.00
2024-01-03T08:42:00.647Z,100.00
2024-01-03T08:43:00.609Z,100.00
2024-01-03T08:43:59.930Z,100.00
2024-01-03T08:44:59.171Z,100.00
2024-01-03T08:45:59.840Z,100.00
2024-01-03T08:46:59.861Z,100.00
2024-01-03T08:47:59.301Z,100.00
2024-01-03T08:48:59.986Z,100.00
2024-01-03T08:49:59.233Z,100.00
2024-01-03T08:50:59.192Z,100.00
2024-01-03T08:52:00.612Z,100.00
2024-01-03T08:52:59.054Z,100.00
2024-01-03T08:53:59.800Z,100.00
2024-01-03T08:54:59.780Z,100.00
2024-01-03T08:55:59.712Z,100.00
2024-01-03T08:56:59.719Z,100.00
2024-01-03T08:57:59.771Z,100.00
2024-01-03T08:59:00.336Z,100.00
2024-01-03T08:59:59.876Z,100.00
2024-01-03T09:01:00.438Z,100.00
2024-01-03T09:01:59.647Z,100.00
2024-01-03T09:02:59.726Z,100.00
2024-01-03T09:04:00.328Z,100.00
2024-01-03T09:04:59.584Z,100.00
2024-01-03T09:06:00.346Z,100.00
2024-01-03T09:06:59.662Z,100.00
2024-01-03T09:08:00.635Z,100.00
2024-01-03T09:08:58.950Z,100.00
2024-01-03T09:09:58.861Z,100.00
2024-01-03T09:10:59.531Z,100.00
2024-01-03T09:11:59.568Z,100.00
2024-01-03T09:12:59.500Z,100.00
2024-01-03T09:13:59.453Z,100.00
2024-01-03T09:15:00.738Z,100.00
2024-01-03T09:16:00.140Z,100.00
2024-01-03T09:16:58.722Z,100.00
2024-01-03T09:17:58.973Z,100.00
2024-01-03T09:19:00.380Z,100.00
2024-01-03T09:19:59.480Z,100.00
2024-01-03T09:20:59.442Z,100.00
2024-01-03T09:21:59.368Z,100.00
2024-01-03T09:22:59.102Z,100.00
2024-01-03T09:23:59.382Z,100.00
2024-01-03T09:24:58.594Z,100.00
2024-01-03T09:25:59.320Z,100.00
2024-01-03T09:27:00.016Z,100.00
2024-01-03T09:28:00.113Z,100.00
2024-01-03T09:28:59.255Z,100.00
2024-01-03T09:30:00.000Z,100.00
2024-01-03T09:30:59.408Z,100.00
2024-01-03T09:32:00.074Z,100.00
2024-01-03T09:32:58.679Z,100.00
2024-01-03T09:34:00.031Z,98.86
2024-01-03T09:34:59.215Z,97.43
2024-01-03T09:35:59.279Z,95.83
2024-01-03T09:37:00.465Z,96.39
2024-01-03T09:37:59.851Z,95.84
2024-01-03T09:38:59.147Z,97.22
2024-01-03T09:39:59.828Z,96.93
2024-01-03T09:40:58.374Z,93.60
2024-01-03T09:42:00.504Z,94.85
2024-01-03T09:43:00.647Z,96.05
2024-01-03T09:44:00.310Z,97.01
2024-01-03T09:44:58.524Z,97.75
2024-01-03T09:45:59.725Z,98.20
2024-01-03T09:46:59.005Z,99.05
2024-01-03T09:47:59.773Z,99.44
2024-01-03T09:48:59.247Z,99.20
2024-01-03T09:50:00.336Z,99.13
2024-01-03T09:50:59.095Z,99.33
2024-01-03T09:51:58.974Z,99.34
2024-01-03T09:52:59.628Z,99.42
2024-01-03T09:53:59.331Z,99.50
2024-01-03T09:54:58.921Z,100.00
2024-01-03T09:55:59.572Z,100.00
2024-01-03T09:56:59.663Z,100.00
2024-01-03T09:57:59.561Z,100.00
2024-01-03T09:58:59.557Z,100.00
2024-01-03T09:59:59.620Z,100.00
2024-01-03T10:00:58.935Z,100.00
2024-01-03T10:01:58.864Z,100.00
2024-01-03T10:02:59.547Z,99.89
2024-01-03T10:03:58.843Z,100.00
2024-01-03T10:04:59.517Z,99.97
2024-01-03T10:05:59.516Z,99.64
2024-01-03T10:06:59.474Z,99.55
2024-01-03T10:07:58.730Z,98.05
2024-01-03T10:08:59.663Z,97.99
2024-01-03T10:09:58.710Z,97.90
2024-01-03T10:10:59.388Z,98.06
2024-01-03T10:11:59.419Z,97.25
2024-01-03T10:12:59.900Z,96.62
2024-01-03T10:13:58.721Z,97.01
2024-01-03T10:14:59.433Z,96.99
2024-01-03T10:15:59.308Z,96.32
2024-01-03T10:16:58.682Z,97.35
2024-01-03T10:17:58.743Z,96.76
2024-01-03T10:18:59.896Z,96.97
2024-01-03T10:19:58.645Z,96.94
2024-01-03T10:20:58.613Z,97.07
2024-01-03T10:21:59.217Z,97.88
2024-01-03T10:22:58.565Z,98.16
2024-01-03T10:23:58.671Z,98.46
2024-01-03T10:24:59.183Z,98.63
2024-01-03T10:25:59.249Z,98.83
2024-01-03T10:26:57.934Z,98.51
2024-01-03T10:27:59.151Z,98.95
2024-01-03T10:28:58.492Z,98.71
2024-01-03T10:29:59.152Z,99.15
2024-01-03T10:30:59.159Z,98.49
2024-01-03T10:31:59.073Z,98.88
2024-01-03T10:32:58.616Z,99.12
2024-01-03T10:34:03.502Z,99.07
2024-01-03T10:35:00.809Z,99.49
2024-01-03T10:35:58.419Z,99.76
2024-01-03T10:36:57.717Z,99.15
2024-01-03T10:37:58.364Z,98.89
2024-01-03T10:38:58.062Z,98.98
2024-01-03T10:39:58.966Z,99.53
2024-01-03T10:40:58.288Z,99.45
2024-01-03T10:41:59.116Z,99.40
2024-01-03T10:42:58.943Z,99.56
2024-01-03T10:43:58.019Z,99.79
2024-01-03T10:44:58.928Z,99.75
2024-01-03T10:45:58.917Z,100.00
2024-01-03T10:46:59.444Z,100.00
2024-01-03T10:47:59.635Z,100.00
2024-01-03T10:48:59.534Z,100.00
2024-01-03T10:49:59.544Z,100.00
2024-01-03T10:50:59.434Z,99.96
2024-01-03T10:51:58.138Z,99.86
2024-01-03T10:52:59.461Z,99.33
2024-01-03T10:53:58.833Z,99.57
2024-01-03T10:54:57.416Z,100.00
2024-01-03T10:55:58.750Z,100.00
2024-01-03T10:56:58.113Z,100.00
2024-01-03T10:57:57.345Z,100.00
2024-01-03T10:58:58.027Z,100.00
2024-01-03T10:59:58.747Z,100.00
2024-01-03T11:00:58.755Z,100.00
2024-01-03T11:01:58.731Z,100.00
2024-01-03T11:02:57.964Z,100.00
2024-01-03T11:03:58.740Z,100.00
2024-01-03T11:04:57.979Z,100.00
2024-01-03T11:05:58.000Z,100.00
2024-01-03T11:06:58.649Z,100.00
2024-01-03T11:07:58.597Z,100.00
2024-01-03T11:08:57.945Z,100.00
2024-01-03T11:09:57.882Z,100.00
2024-01-03T11:10:57.889Z,100.00
2024-01-03T11:11:58.623Z,100.00
2024-01-03T11:12:57.873Z,100.00
2024-01-03T11:13:58.491Z,100.00
2024-01-03T11:14:57.925Z,100.00
2024-01-03T11:15:57.845Z,100.00
2024-01-03T11:16:58.471Z,100.00
2024-01-03T11:17:58.023Z,100.00
2024-01-03T11:18:57.831Z,100.00
2024-01-03T11:19:57.739Z,100.00
2024-01-03T11:20:58.468Z,100.00
2024-01-03T11:21:57.699Z,100.00
2024-01-03T11:22:57.687Z,99.89
2024-01-03T11:23:57.709Z,99.96
2024-01-03T11:24:57.704Z,100.00
2024-01-03T11:25:57.672Z,99.95
2024-01-03T11:26:57.880Z,99.46
2024-01-03T11:27:57.618Z,98.99
2024-01-03T11:28:58.293Z,99.07
2024-01-03T11:29:58.449Z,99.12
2024-01-03T11:30:57.581Z,99.49
2024-01-03T11:31:58.245Z,99.94
2024-01-03T11:32:57.196Z,100.00
2024-01-03T11:33:58.287Z,99.65
2024-01-03T11:34:57.581Z,99.74
2024-01-03T11:35:57.531Z,100.00
2024-01-03T11:36:56.993Z,100.00
2024-01-03T11:37:57.495Z,100.00
2024-01-03T11:38:58.208Z,100.00
2024-01-03T11:39:57.318Z,100.00
2024-01-03T11:40:57.472Z,100.00
2024-01-03T11:41:57.567Z,100.00
2024-01-03T11:42:56.682Z,100.00
2024-01-03T11:43:57.313Z,100.00
2024-01-03T11:44:57.360Z,100.00
2024-01-03T11:45:57.370Z,100.00
2024-01-03T11:46:57.366Z,100.00
2024-01-03T11:47:58.093Z,99.82
2024-01-03T11:48:58.084Z,99.71
2024-01-03T11:49:57.395Z,100.00
2024-01-03T11:50:57.318Z,99.82
2024-01-03T11:51:56.550Z,99.44
2024-01-03T11:52:57.282Z,99.44
2024-01-03T11:53:58.566Z,99.44
2024-01-03T11:54:57.946Z,99.54
2024-01-03T11:55:57.258Z,99.54
2024-01-03T11:56:58.580Z,99.67
2024-01-03T11:57:58.434Z,99.43
2024-01-03T11:58:58.426Z,99.86
2024-01-03T11:59:58.485Z,100.00
2024-01-03T12:00:58.396Z,100.00
2024-01-03T12:01:58.378Z,100.00
2024-01-03T12:02:58.672Z,100.00
2024-01-03T12:03:57.801Z,100.00
2024-01-03T12:04:57.146Z,100.00
2024-01-03T12:05:57.841Z,100.00
2024-01-03T12:06:57.828Z,100.00
2024-01-03T12:07:57.086Z,100.00
2024-01-03T12:08:56.573Z,100.00
2024-01-03T12:09:57.707Z,100.00
2024-01-03T12:10:57.099Z,99.95
2024-01-03T12:11:56.306Z,99.19
2024-01-03T12:12:57.684Z,99.40
2024-01-03T12:13:56.961Z,99.94
2024-01-03T12:14:56.308Z,100.00
2024-01-03T12:15:56.220Z,99.70
2024-01-03T12:16:57.658Z,98.84
2024-01-03T12:17:57.686Z,98.57
2024-01-03T12:18:57.143Z,97.86
2024-01-03T12:19:57.087Z,98.23
2024-01-03T12:20:56.880Z,98.81
2024-01-03T12:21:56.872Z,98.96
2024-01-03T12:22:56.154Z,99.29
2024-01-03T12:23:56.552Z,97.95
2024-01-03T12:24:56.934Z,97.51
2024-01-03T12:25:57.482Z,97.30
2024-01-03T12:26:56.593Z,98.07
2024-01-03T12:27:56.115Z,98.50
2024-01-03T12:28:57.441Z,97.35
2024-01-03T12:29:57.498Z,97.12
2024-01-03T12:30:56.095Z,96.68
2024-01-03T12:31:58.804Z,97.64
2024-01-03T12:32:56.837Z,97.02
2024-01-03T12:33:57.487Z,96.74
2024-01-03T12:34:56.712Z,97.14
2024-01-03T12:35:56.830Z,97.42
2024-01-03T12:36:57.417Z,96.96
2024-01-03T12:38:56.433Z,96.33
2024-01-03T12:39:56.073Z,96.00
2024-01-03T12:40:59.345Z,95.58
2024-01-03T12:41:56.614Z,95.88
2024-01-03T12:42:56.590Z,96.60
2024-01-03T12:43:57.821Z,96.01
2024-01-03T12:44:57.264Z,95.88